Aérodrome :
LOGIN :

S'inscrire | Disclaimer

   EN    FR    IT 

 










Légende :    VFR   VFR Marginal   IFR   IFR Intensif   IFR Très Intensif
Visi : 
Plafond : 
>= 8 km
>= 3000ft
5 à 8 km
1000 à 3000 ft
1500m à 5 km
500 à 1000 ft
800 à 1500m
200 à 500 ft
< 800m
< 200 ft
Symboles :   Orages  Brouillard  Fortes neiges  Fortes précipitations  Vent > 20 kt
SIGMETs :   Divers  Orages  Givrage  Turbulence  Onde Orograph.  Cendres Volcan.






- Altitude de l'aérodrome : 13 ft
- Code IATA : SNR


LFRZ - St-Nazaire

DERNIER METAR :
  • 211730Z AUTO 30004KT 260V350 CAVOK 14/12 Q1011 NOSIG

METARs EXPIRÉS :
  • 211700Z AUTO 33005KT 280V010 9999 FEW033/// OVC072/// ///TCU 14/12 Q1011 BECMG SCT020
  • 211630Z AUTO 34005KT 310V010 9999 -RA FEW030/// BKN068/// BKN084/// ///TCU 15/13 Q1011 BECMG SCT020
  • 211600Z AUTO 32007KT 290V350 9999 -RA FEW012/// BKN037/// BKN048/// ///CB 15/12 Q1011 TEMPO 4000 -SHRA BECMG SCT020
  • 211530Z AUTO 32010KT 290V010 9999 FEW014/// BKN029/// BKN042/// ///CB 16/13 Q1011 TEMPO 4000 -SHRA BECMG SCT020
  • 211500Z AUTO 29008KT 260V320 9999 FEW041/// BKN048/// BKN054/// ///CB 16/12 Q1011 TEMPO VRB15G25KT 4000 -SHRA
  • 211430Z AUTO 25005KT 230V290 9999 FEW020/// SCT035/// BKN042/// ///CB 16/13 Q1011 TEMPO 4000 -SHRA BECMG 35010KT
  • 211400Z AUTO 25008KT 5000 -RA BR FEW043/// SCT064/// OVC076/// ///CB 14/12 Q1010 TEMPO VRB15G25KT 2500 TSRA
  • 211330Z AUTO 35006KT 240V040 9999 +TSRA FEW049/// BKN056/// BKN066/// ///CB 18/12 Q1010 TEMPO VRB15G25KT 2500 TSRA
  • 211300Z AUTO 01008KT 320V050 9999 VCTS BKN038/// BKN046/// BKN056/// ///CB 19/12 Q1009 TEMPO VRB15G25KT 2500 TSRA

TAF TAF LFRZ
Valide du 21 à 12h jusqu'au 22 à 12h UTC


211100Z 2112/2212 28010KT 9999 SCT020
TEMPO 2112/2117 4000 -SHRA BKN035CB
PROB40
TEMPO 2113/2116 VRB15G25KT 2500 TSRA
BECMG 2115/2117 35010KT
BECMG 2117/2119 28004KT
PROB30
TEMPO 2123/2203 -SHRA SCT070TCU
PROB40
TEMPO 2206/2212 4000 SHRA SCT030CB



MET'MAP, la Météo Aéronautique d'un coup d'oeil ! - Copyright ORBIFLY Décembre 2007 - Disclaimer

ORBIFLY MET'MAP TEAM :

Programmation & Développement : Alexandra Zaïnal
Sur une idée originale de : Baudouin d'Aumeries
Soutien technique & logistique : Manuel Goepfert
Assistance : Marc-Olivier Méhu




SOURCES & CREDITS :

   NOAA